sensor_id;sensor_type;location;lat;lon;timestamp;temperature;humidity
6333;DHT22;3199;49.102;8.856;2023-03-16T00:01:40;1.40;99.90
6333;DHT22;3199;49.102;8.856;2023-03-16T00:04:06;1.40;99.90
6333;DHT22;3199;49.102;8.856;2023-03-16T00:06:31;1.40;99.90
6333;DHT22;3199;49.102;8.856;2023-03-16T00:08:57;1.40;99.90
6333;DHT22;3199;49.102;8.856;2023-03-16T00:11:24;1.40;99.90
6333;DHT22;3199;49.102;8.856;2023-03-16T00:13:49;1.40;99.90
6333;DHT22;3199;49.102;8.856;2023-03-16T00:16:15;1.40;99.90
6333;DHT22;3199;49.102;8.856;2023-03-16T00:18:41;1.40;99.90
6333;DHT22;3199;49.102;8.856;2023-03-16T00:21:07;1.30;99.90
6333;DHT22;3199;49.102;8.856;2023-03-16T00:23:34;1.30;99.90
6333;DHT22;3199;49.102;8.856;2023-03-16T00:26:02;1.30;99.90
6333;DHT22;3199;49.102;8.856;2023-03-16T00:28:29;1.30;99.90
6333;DHT22;3199;49.102;8.856;2023-03-16T00:31:06;1.20;99.90
6333;DHT22;3199;49.102;8.856;2023-03-16T00:33:32;1.30;99.90
6333;DHT22;3199;49.102;8.856;2023-03-16T00:36:04;1.30;99.90
6333;DHT22;3199;49.102;8.856;2023-03-16T00:38:34;1.30;99.90
6333;DHT22;3199;49.102;8.856;2023-03-16T00:41:01;1.30;99.90
6333;DHT22;3199;49.102;8.856;2023-03-16T00:43:30;1.30;99.90
6333;DHT22;3199;49.102;8.856;2023-03-16T00:45:58;1.30;99.90
6333;DHT22;3199;49.102;8.856;2023-03-16T00:48:23;1.30;99.90
6333;DHT22;3199;49.102;8.856;2023-03-16T00:50:49;1.20;99.90
6333;DHT22;3199;49.102;8.856;2023-03-16T00:53:18;1.20;99.90
6333;DHT22;3199;49.102;8.856;2023-03-16T00:55:44;1.20;99.90
6333;DHT22;3199;49.102;8.856;2023-03-16T00:58:09;1.20;99.90
6333;DHT22;3199;49.102;8.856;2023-03-16T01:00:39;1.20;99.90
6333;DHT22;3199;49.102;8.856;2023-03-16T01:03:05;1.10;99.90
6333;DHT22;3199;49.102;8.856;2023-03-16T01:05:30;1.20;99.90
6333;DHT22;3199;49.102;8.856;2023-03-16T01:07:57;1.10;99.90
6333;DHT22;3199;49.102;8.856;2023-03-16T01:10:26;1.10;99.90
6333;DHT22;3199;49.102;8.856;2023-03-16T01:12:52;1.10;99.90
6333;DHT22;3199;49.102;8.856;2023-03-16T01:15:20;1.10;99.90
6333;DHT22;3199;49.102;8.856;2023-03-16T01:17:46;1.10;99.90
6333;DHT22;3199;49.102;8.856;2023-03-16T01:20:12;1.10;99.90
6333;DHT22;3199;49.102;8.856;2023-03-16T01:22:39;1.10;99.90
6333;DHT22;3199;49.102;8.856;2023-03-16T01:25:05;1.10;99.90
6333;DHT22;3199;49.102;8.856;2023-03-16T01:27:30;1.10;99.90
6333;DHT22;3199;49.102;8.856;2023-03-16T01:29:57;1.00;99.90
6333;DHT22;3199;49.102;8.856;2023-03-16T01:32:22;1.10;99.90
6333;DHT22;3199;49.102;8.856;2023-03-16T01:34:48;1.10;99.90
6333;DHT22;3199;49.102;8.856;2023-03-16T01:37:13;1.00;99.90
6333;DHT22;3199;49.102;8.856;2023-03-16T01:39:39;1.00;99.90
6333;DHT22;3199;49.102;8.856;2023-03-16T01:42:05;1.00;99.90
6333;DHT22;3199;49.102;8.856;2023-03-16T01:44:53;1.00;99.90
6333;DHT22;3199;49.102;8.856;2023-03-16T01:47:19;1.00;99.90
6333;DHT22;3199;49.102;8.856;2023-03-16T01:49:45;1.00;99.90
6333;DHT22;3199;49.102;8.856;2023-03-16T01:52:17;1.00;99.90
6333;DHT22;3199;49.102;8.856;2023-03-16T01:54:49;1.00;99.90
6333;DHT22;3199;49.102;8.856;2023-03-16T01:57:19;1.00;99.90
6333;DHT22;3199;49.102;8.856;2023-03-16T02:02:37;0.90;99.90
6333;DHT22;3199;49.102;8.856;2023-03-16T02:05:14;0.90;99.90
6333;DHT22;3199;49.102;8.856;2023-03-16T02:07:45;0.90;99.90
6333;DHT22;3199;49.102;8.856;2023-03-16T02:10:14;0.90;99.90
6333;DHT22;3199;49.102;8.856;2023-03-16T02:12:41;0.90;99.90
6333;DHT22;3199;49.102;8.856;2023-03-16T02:15:08;0.90;99.90
6333;DHT22;3199;49.102;8.856;2023-03-16T02:17:34;0.90;99.90
6333;DHT22;3199;49.102;8.856;2023-03-16T02:23:04;0.90;99.90
6333;DHT22;3199;49.102;8.856;2023-03-16T02:25:49;0.90;99.90
6333;DHT22;3199;49.102;8.856;2023-03-16T02:31:05;0.90;99.90
6333;DHT22;3199;49.102;8.856;2023-03-16T02:33:31;0.90;99.90
6333;DHT22;3199;49.102;8.856;2023-03-16T02:35:58;0.90;99.90
6333;DHT22;3199;49.102;8.856;2023-03-16T02:38:23;0.90;99.90
6333;DHT22;3199;49.102;8.856;2023-03-16T02:40:58;0.90;99.90
6333;DHT22;3199;49.102;8.856;2023-03-16T02:43:29;0.90;99.90
6333;DHT22;3199;49.102;8.856;2023-03-16T02:45:59;0.90;99.90
6333;DHT22;3199;49.102;8.856;2023-03-16T02:48:44;0.90;99.90
6333;DHT22;3199;49.102;8.856;2023-03-16T02:51:12;0.90;99.90
6333;DHT22;3199;49.102;8.856;2023-03-16T02:53:37;0.90;99.90
6333;DHT22;3199;49.102;8.856;2023-03-16T02:56:03;0.90;99.90
6333;DHT22;3199;49.102;8.856;2023-03-16T02:58:29;0.90;99.90
6333;DHT22;3199;49.102;8.856;2023-03-16T03:00:56;0.90;99.90
6333;DHT22;3199;49.102;8.856;2023-03-16T03:03:22;0.90;99.90
6333;DHT22;3199;49.102;8.856;2023-03-16T03:05:47;0.90;99.90
6333;DHT22;3199;49.102;8.856;2023-03-16T03:08:13;1.00;99.90
6333;DHT22;3199;49.102;8.856;2023-03-16T03:10:39;1.00;99.90
6333;DHT22;3199;49.102;8.856;2023-03-16T03:13:05;1.00;99.90
6333;DHT22;3199;49.102;8.856;2023-03-16T03:15:32;1.00;99.90
6333;DHT22;3199;49.102;8.856;2023-03-16T03:17:58;1.00;99.90
6333;DHT22;3199;49.102;8.856;2023-03-16T03:20:24;1.00;99.90
6333;DHT22;3199;49.102;8.856;2023-03-16T03:22:50;1.00;99.90
6333;DHT22;3199;49.102;8.856;2023-03-16T03:25:18;0.90;99.90
6333;DHT22;3199;49.102;8.856;2023-03-16T03:27:44;0.90;99.90
6333;DHT22;3199;49.102;8.856;2023-03-16T03:30:16;0.90;99.90
6333;DHT22;3199;49.102;8.856;2023-03-16T03:32:42;1.00;99.90
6333;DHT22;3199;49.102;8.856;2023-03-16T03:35:09;0.90;99.90
6333;DHT22;3199;49.102;8.856;2023-03-16T03:37:40;0.90;99.90
6333;DHT22;3199;49.102;8.856;2023-03-16T03:40:14;0.90;99.90
6333;DHT22;3199;49.102;8.856;2023-03-16T03:42:40;0.90;99.90
6333;DHT22;3199;49.102;8.856;2023-03-16T03:45:07;0.90;99.90
6333;DHT22;3199;49.102;8.856;2023-03-16T03:47:32;0.90;99.90
6333;DHT22;3199;49.102;8.856;2023-03-16T03:49:58;0.90;99.90
6333;DHT22;3199;49.102;8.856;2023-03-16T03:52:24;0.90;99.90
6333;DHT22;3199;49.102;8.856;2023-03-16T03:54:49;0.90;99.90
6333;DHT22;3199;49.102;8.856;2023-03-16T03:57:15;0.90;99.90
6333;DHT22;3199;49.102;8.856;2023-03-16T03:59:41;0.90;99.90
6333;DHT22;3199;49.102;8.856;2023-03-16T04:02:11;0.90;99.90
6333;DHT22;3199;49.102;8.856;2023-03-16T04:04:38;0.90;99.90
6333;DHT22;3199;49.102;8.856;2023-03-16T04:07:04;0.90;99.90
6333;DHT22;3199;49.102;8.856;2023-03-16T04:09:30;0.90;99.90
6333;DHT22;3199;49.102;8.856;2023-03-16T04:12:02;0.90;99.90
6333;DHT22;3199;49.102;8.856;2023-03-16T04:14:29;0.90;99.90
6333;DHT22;3199;49.102;8.856;2023-03-16T04:17:01;0.90;99.90
6333;DHT22;3199;49.102;8.856;2023-03-16T04:19:29;0.80;99.90
6333;DHT22;3199;49.102;8.856;2023-03-16T04:21:54;0.80;99.90
6333;DHT22;3199;49.102;8.856;2023-03-16T04:24:20;0.80;99.90
6333;DHT22;3199;49.102;8.856;2023-03-16T04:26:47;0.80;99.90
6333;DHT22;3199;49.102;8.856;2023-03-16T04:29:13;0.80;99.90
6333;DHT22;3199;49.102;8.856;2023-03-16T04:31:42;0.80;99.90
6333;DHT22;3199;49.102;8.856;2023-03-16T04:34:08;0.80;99.90
6333;DHT22;3199;49.102;8.856;2023-03-16T04:36:34;0.80;99.90
6333;DHT22;3199;49.102;8.856;2023-03-16T04:38:59;0.70;99.90
6333;DHT22;3199;49.102;8.856;2023-03-16T04:41:25;0.70;99.90
6333;DHT22;3199;49.102;8.856;2023-03-16T04:43:50;0.80;99.90
6333;DHT22;3199;49.102;8.856;2023-03-16T04:46:16;0.70;99.90
6333;DHT22;3199;49.102;8.856;2023-03-16T04:48:42;0.80;99.90
6333;DHT22;3199;49.102;8.856;2023-03-16T04:51:07;0.70;99.90
6333;DHT22;3199;49.102;8.856;2023-03-16T04:53:33;0.80;99.90
6333;DHT22;3199;49.102;8.856;2023-03-16T04:55:59;0.80;99.90
6333;DHT22;3199;49.102;8.856;2023-03-16T04:58:24;0.80;99.90
6333;DHT22;3199;49.102;8.856;2023-03-16T05:00:53;0.80;99.90
6333;DHT22;3199;49.102;8.856;2023-03-16T05:03:22;0.80;99.90
6333;DHT22;3199;49.102;8.856;2023-03-16T05:05:48;0.80;99.90
6333;DHT22;3199;49.102;8.856;2023-03-16T05:08:14;0.80;99.90
6333;DHT22;3199;49.102;8.856;2023-03-16T05:10:40;0.80;99.90
6333;DHT22;3199;49.102;8.856;2023-03-16T05:13:06;0.80;99.90
6333;DHT22;3199;49.102;8.856;2023-03-16T05:15:32;0.80;99.90
6333;DHT22;3199;49.102;8.856;2023-03-16T05:17:58;0.80;99.90
6333;DHT22;3199;49.102;8.856;2023-03-16T05:20:24;0.80;99.90
6333;DHT22;3199;49.102;8.856;2023-03-16T05:22:50;0.80;99.90
6333;DHT22;3199;49.102;8.856;2023-03-16T05:25:16;0.80;99.90
6333;DHT22;3199;49.102;8.856;2023-03-16T05:27:47;0.80;99.90
6333;DHT22;3199;49.102;8.856;2023-03-16T05:30:14;0.80;99.90
6333;DHT22;3199;49.102;8.856;2023-03-16T05:32:41;0.80;99.90
6333;DHT22;3199;49.102;8.856;2023-03-16T05:35:07;0.80;99.90
6333;DHT22;3199;49.102;8.856;2023-03-16T05:37:33;0.80;99.90
6333;DHT22;3199;49.102;8.856;2023-03-16T05:40:04;0.90;99.90
6333;DHT22;3199;49.102;8.856;2023-03-16T05:42:36;0.90;99.90
6333;DHT22;3199;49.102;8.856;2023-03-16T05:45:02;0.90;99.90
6333;DHT22;3199;49.102;8.856;2023-03-16T05:47:27;0.90;99.90
6333;DHT22;3199;49.102;8.856;2023-03-16T05:49:53;1.00;99.90
6333;DHT22;3199;49.102;8.856;2023-03-16T05:52:18;1.00;99.90
6333;DHT22;3199;49.102;8.856;2023-03-16T05:54:44;1.00;99.90
6333;DHT22;3199;49.102;8.856;2023-03-16T05:57:09;1.10;99.90
6333;DHT22;3199;49.102;8.856;2023-03-16T05:59:35;1.10;99.90
6333;DHT22;3199;49.102;8.856;2023-03-16T06:02:00;1.20;99.90
6333;DHT22;3199;49.102;8.856;2023-03-16T06:04:26;1.20;99.90
6333;DHT22;3199;49.102;8.856;2023-03-16T06:06:51;1.30;99.90
6333;DHT22;3199;49.102;8.856;2023-03-16T06:09:17;1.40;99.90
6333;DHT22;3199;49.102;8.856;2023-03-16T06:11:42;1.40;99.90
6333;DHT22;3199;49.102;8.856;2023-03-16T06:14:08;1.40;99.90
6333;DHT22;3199;49.102;8.856;2023-03-16T06:16:34;1.50;99.90
6333;DHT22;3199;49.102;8.856;2023-03-16T06:18:59;1.50;99.90
6333;DHT22;3199;49.102;8.856;2023-03-16T06:21:25;1.60;99.90
6333;DHT22;3199;49.102;8.856;2023-03-16T06:23:50;1.60;99.90
6333;DHT22;3199;49.102;8.856;2023-03-16T06:26:16;1.60;99.90
6333;DHT22;3199;49.102;8.856;2023-03-16T06:28:41;1.60;99.90
6333;DHT22;3199;49.102;8.856;2023-03-16T06:31:07;1.60;99.90
6333;DHT22;3199;49.102;8.856;2023-03-16T06:33:32;1.70;99.90
6333;DHT22;3199;49.102;8.856;2023-03-16T06:35:58;1.70;99.90
6333;DHT22;3199;49.102;8.856;2023-03-16T06:38:23;1.70;99.90
6333;DHT22;3199;49.102;8.856;2023-03-16T06:40:52;1.80;99.90
6333;DHT22;3199;49.102;8.856;2023-03-16T06:43:18;1.80;99.90
6333;DHT22;3199;49.102;8.856;2023-03-16T06:45:44;1.90;99.90
6333;DHT22;3199;49.102;8.856;2023-03-16T06:48:09;2.00;99.90
6333;DHT22;3199;49.102;8.856;2023-03-16T06:50:35;2.20;99.90
6333;DHT22;3199;49.102;8.856;2023-03-16T06:53:01;2.40;99.90
6333;DHT22;3199;49.102;8.856;2023-03-16T06:55:26;2.60;99.90
6333;DHT22;3199;49.102;8.856;2023-03-16T06:57:52;2.90;99.90
6333;DHT22;3199;49.102;8.856;2023-03-16T07:00:18;3.20;99.90
6333;DHT22;3199;49.102;8.856;2023-03-16T07:02:43;3.50;99.90
6333;DHT22;3199;49.102;8.856;2023-03-16T07:05:09;3.80;99.90
6333;DHT22;3199;49.102;8.856;2023-03-16T07:07:40;4.10;99.90
6333;DHT22;3199;49.102;8.856;2023-03-16T07:10:11;4.50;99.90
6333;DHT22;3199;49.102;8.856;2023-03-16T07:12:37;4.90;99.90
6333;DHT22;3199;49.102;8.856;2023-03-16T07:15:03;5.40;99.90
6333;DHT22;3199;49.102;8.856;2023-03-16T07:17:29;5.90;99.90
6333;DHT22;3199;49.102;8.856;2023-03-16T07:19:54;6.30;99.90
6333;DHT22;3199;49.102;8.856;2023-03-16T07:22:20;6.80;99.90
6333;DHT22;3199;49.102;8.856;2023-03-16T07:24:46;7.20;99.90
6333;DHT22;3199;49.102;8.856;2023-03-16T07:27:16;7.70;99.90
6333;DHT22;3199;49.102;8.856;2023-03-16T07:29:41;8.10;99.90
6333;DHT22;3199;49.102;8.856;2023-03-16T07:32:07;8.20;99.90
6333;DHT22;3199;49.102;8.856;2023-03-16T07:34:32;8.20;99.90
6333;DHT22;3199;49.102;8.856;2023-03-16T07:36:58;8.40;99.90
6333;DHT22;3199;49.102;8.856;2023-03-16T07:39:24;8.80;99.50
6333;DHT22;3199;49.102;8.856;2023-03-16T07:41:49;9.10;99.40
6333;DHT22;3199;49.102;8.856;2023-03-16T07:44:15;9.30;98.70
6333;DHT22;3199;49.102;8.856;2023-03-16T07:46:41;9.60;98.10
6333;DHT22;3199;49.102;8.856;2023-03-16T07:49:06;9.80;97.10
6333;DHT22;3199;49.102;8.856;2023-03-16T07:51:34;9.90;96.70
6333;DHT22;3199;49.102;8.856;2023-03-16T07:53:59;10.10;96.00
6333;DHT22;3199;49.102;8.856;2023-03-16T07:56:25;10.40;96.00
6333;DHT22;3199;49.102;8.856;2023-03-16T07:58:51;10.60;94.00
6333;DHT22;3199;49.102;8.856;2023-03-16T08:01:16;10.80;93.60
6333;DHT22;3199;49.102;8.856;2023-03-16T08:03:42;11.00;93.40
6333;DHT22;3199;49.102;8.856;2023-03-16T08:06:08;11.20;92.80
6333;DHT22;3199;49.102;8.856;2023-03-16T08:08:34;11.40;92.10
6333;DHT22;3199;49.102;8.856;2023-03-16T08:11:00;11.70;92.10
6333;DHT22;3199;49.102;8.856;2023-03-16T08:13:25;11.90;90.80
6333;DHT22;3199;49.102;8.856;2023-03-16T08:15:52;12.10;90.40
6333;DHT22;3199;49.102;8.856;2023-03-16T08:18:26;12.30;89.30
6333;DHT22;3199;49.102;8.856;2023-03-16T08:20:52;12.50;88.90
6333;DHT22;3199;49.102;8.856;2023-03-16T08:23:17;12.70;88.90
6333;DHT22;3199;49.102;8.856;2023-03-16T08:25:43;12.90;88.50
6333;DHT22;3199;49.102;8.856;2023-03-16T08:28:09;13.10;86.20
6333;DHT22;3199;49.102;8.856;2023-03-16T08:30:35;13.20;82.50
6333;DHT22;3199;49.102;8.856;2023-03-16T08:33:02;12.90;82.00
6333;DHT22;3199;49.102;8.856;2023-03-16T08:35:28;13.00;83.50
6333;DHT22;3199;49.102;8.856;2023-03-16T08:37:54;13.10;84.40
6333;DHT22;3199;49.102;8.856;2023-03-16T08:40:21;13.30;81.90
6333;DHT22;3199;49.102;8.856;2023-03-16T08:42:48;13.20;80.80
6333;DHT22;3199;49.102;8.856;2023-03-16T08:45:15;13.20;80.60
6333;DHT22;3199;49.102;8.856;2023-03-16T08:47:42;13.30;80.10
6333;DHT22;3199;49.102;8.856;2023-03-16T08:50:09;13.10;79.70
6333;DHT22;3199;49.102;8.856;2023-03-16T08:52:36;13.10;80.30
6333;DHT22;3199;49.102;8.856;2023-03-16T08:55:03;13.10;81.50
6333;DHT22;3199;49.102;8.856;2023-03-16T08:57:32;13.20;81.20
6333;DHT22;3199;49.102;8.856;2023-03-16T08:59:58;13.30;81.40
6333;DHT22;3199;49.102;8.856;2023-03-16T09:02:24;13.60;82.10
6333;DHT22;3199;49.102;8.856;2023-03-16T09:04:50;13.80;78.30
6333;DHT22;3199;49.102;8.856;2023-03-16T09:07:16;13.70;76.50
6333;DHT22;3199;49.102;8.856;2023-03-16T09:09:43;13.90;77.70
6333;DHT22;3199;49.102;8.856;2023-03-16T09:12:09;13.70;76.40
6333;DHT22;3199;49.102;8.856;2023-03-16T09:14:35;13.50;76.60
6333;DHT22;3199;49.102;8.856;2023-03-16T09:17:02;13.60;78.40
6333;DHT22;3199;49.102;8.856;2023-03-16T09:19:28;13.60;75.90
6333;DHT22;3199;49.102;8.856;2023-03-16T09:21:56;13.70;76.70
6333;DHT22;3199;49.102;8.856;2023-03-16T09:24:21;13.70;74.50
6333;DHT22;3199;49.102;8.856;2023-03-16T09:26:47;13.60;76.80
6333;DHT22;3199;49.102;8.856;2023-03-16T09:29:12;13.60;74.30
6333;DHT22;3199;49.102;8.856;2023-03-16T09:31:39;13.60;75.50
6333;DHT22;3199;49.102;8.856;2023-03-16T09:34:05;13.60;75.90
6333;DHT22;3199;49.102;8.856;2023-03-16T09:36:30;13.70;76.20
6333;DHT22;3199;49.102;8.856;2023-03-16T09:38:57;13.70;73.40
6333;DHT22;3199;49.102;8.856;2023-03-16T09:41:46;13.70;75.40
6333;DHT22;3199;49.102;8.856;2023-03-16T09:47:00;13.80;73.00
6333;DHT22;3199;49.102;8.856;2023-03-16T09:49:36;13.80;75.50
6333;DHT22;3199;49.102;8.856;2023-03-16T09:52:11;13.60;74.50
6333;DHT22;3199;49.102;8.856;2023-03-16T09:55:00;13.50;74.00
6333;DHT22;3199;49.102;8.856;2023-03-16T09:57:32;13.20;73.10
6333;DHT22;3199;49.102;8.856;2023-03-16T10:00:23;13.00;75.40
6333;DHT22;3199;49.102;8.856;2023-03-16T10:05:30;12.90;75.90
6333;DHT22;3199;49.102;8.856;2023-03-16T10:08:13;12.90;76.30
6333;DHT22;3199;49.102;8.856;2023-03-16T10:13:32;12.90;74.10
6333;DHT22;3199;49.102;8.856;2023-03-16T10:16:02;12.90;76.10
6333;DHT22;3199;49.102;8.856;2023-03-16T10:18:34;12.90;75.40
6333;DHT22;3199;49.102;8.856;2023-03-16T10:21:04;12.80;75.70
6333;DHT22;3199;49.102;8.856;2023-03-16T10:23:32;13.00;78.00
6333;DHT22;3199;49.102;8.856;2023-03-16T10:25:59;13.00;77.60
6333;DHT22;3199;49.102;8.856;2023-03-16T10:28:30;13.10;78.50
6333;DHT22;3199;49.102;8.856;2023-03-16T10:30:58;13.10;78.30
6333;DHT22;3199;49.102;8.856;2023-03-16T10:33:30;13.20;78.40
6333;DHT22;3199;49.102;8.856;2023-03-16T10:41:25;13.40;80.30
6333;DHT22;3199;49.102;8.856;2023-03-16T10:43:55;13.60;78.60
6333;DHT22;3199;49.102;8.856;2023-03-16T10:46:23;13.80;77.50
6333;DHT22;3199;49.102;8.856;2023-03-16T10:48:57;13.90;76.50
6333;DHT22;3199;49.102;8.856;2023-03-16T10:51:34;14.20;76.00
6333;DHT22;3199;49.102;8.856;2023-03-16T10:54:08;14.30;75.60
6333;DHT22;3199;49.102;8.856;2023-03-16T10:56:38;14.50;72.30
6333;DHT22;3199;49.102;8.856;2023-03-16T10:59:34;14.60;71.10
6333;DHT22;3199;49.102;8.856;2023-03-16T11:02:02;14.50;72.90
6333;DHT22;3199;49.102;8.856;2023-03-16T11:04:31;14.40;74.10
6333;DHT22;3199;49.102;8.856;2023-03-16T11:06:57;14.40;71.50
6333;DHT22;3199;49.102;8.856;2023-03-16T11:09:25;14.60;73.60
6333;DHT22;3199;49.102;8.856;2023-03-16T11:11:55;14.50;72.60
6333;DHT22;3199;49.102;8.856;2023-03-16T11:14:24;14.50;71.40
6333;DHT22;3199;49.102;8.856;2023-03-16T11:19:23;14.70;71.20
6333;DHT22;3199;49.102;8.856;2023-03-16T11:22:01;14.60;72.50
6333;DHT22;3199;49.102;8.856;2023-03-16T11:30:29;14.70;71.20
6333;DHT22;3199;49.102;8.856;2023-03-16T11:32:58;14.60;68.70
6333;DHT22;3199;49.102;8.856;2023-03-16T11:38:18;14.60;68.70
6333;DHT22;3199;49.102;8.856;2023-03-16T11:41:00;14.40;67.10
6333;DHT22;3199;49.102;8.856;2023-03-16T11:43:54;14.20;67.60
6333;DHT22;3199;49.102;8.856;2023-03-16T11:46:40;14.20;69.70
6333;DHT22;3199;49.102;8.856;2023-03-16T11:49:14;14.20;68.00
6333;DHT22;3199;49.102;8.856;2023-03-16T11:54:59;14.20;68.40
6333;DHT22;3199;49.102;8.856;2023-03-16T11:57:39;14.20;68.80
6333;DHT22;3199;49.102;8.856;2023-03-16T12:02:46;14.30;67.00
6333;DHT22;3199;49.102;8.856;2023-03-16T12:13:51;14.70;67.20
6333;DHT22;3199;49.102;8.856;2023-03-16T12:16:31;14.70;65.50
6333;DHT22;3199;49.102;8.856;2023-03-16T12:19:00;14.70;66.90
6333;DHT22;3199;49.102;8.856;2023-03-16T12:21:36;14.70;67.20
6333;DHT22;3199;49.102;8.856;2023-03-16T12:24:13;14.70;66.10
6333;DHT22;3199;49.102;8.856;2023-03-16T12:26:41;14.60;65.20
6333;DHT22;3199;49.102;8.856;2023-03-16T12:29:34;14.50;65.30
6333;DHT22;3199;49.102;8.856;2023-03-16T12:32:04;14.40;67.60
6333;DHT22;3199;49.102;8.856;2023-03-16T12:34:42;14.50;64.40
6333;DHT22;3199;49.102;8.856;2023-03-16T12:40:02;14.80;64.40
6333;DHT22;3199;49.102;8.856;2023-03-16T12:42:41;14.70;64.30
6333;DHT22;3199;49.102;8.856;2023-03-16T12:48:17;14.60;63.90
6333;DHT22;3199;49.102;8.856;2023-03-16T12:50:54;14.70;64.40
6333;DHT22;3199;49.102;8.856;2023-03-16T12:53:37;14.70;64.20
6333;DHT22;3199;49.102;8.856;2023-03-16T12:56:06;14.70;62.70
6333;DHT22;3199;49.102;8.856;2023-03-16T12:58:35;14.80;61.40
6333;DHT22;3199;49.102;8.856;2023-03-16T13:01:07;14.80;63.10
6333;DHT22;3199;49.102;8.856;2023-03-16T13:03:34;15.00;63.30
6333;DHT22;3199;49.102;8.856;2023-03-16T13:06:00;14.90;62.60
6333;DHT22;3199;49.102;8.856;2023-03-16T13:08:40;14.90;63.30
6333;DHT22;3199;49.102;8.856;2023-03-16T13:11:09;14.70;63.20
6333;DHT22;3199;49.102;8.856;2023-03-16T13:13:48;14.40;63.20
6333;DHT22;3199;49.102;8.856;2023-03-16T13:16:25;14.00;63.20
6333;DHT22;3199;49.102;8.856;2023-03-16T13:18:51;13.80;64.40
6333;DHT22;3199;49.102;8.856;2023-03-16T13:21:35;13.70;64.00
6333;DHT22;3199;49.102;8.856;2023-03-16T13:26:52;13.40;65.90
6333;DHT22;3199;49.102;8.856;2023-03-16T13:29:29;13.40;67.30
6333;DHT22;3199;49.102;8.856;2023-03-16T13:31:57;13.50;66.40
6333;DHT22;3199;49.102;8.856;2023-03-16T13:34:30;13.50;65.00
6333;DHT22;3199;49.102;8.856;2023-03-16T13:36:57;13.60;66.70
6333;DHT22;3199;49.102;8.856;2023-03-16T13:39:27;13.70;66.20
6333;DHT22;3199;49.102;8.856;2023-03-16T13:44:22;14.00;64.90
6333;DHT22;3199;49.102;8.856;2023-03-16T13:46:49;14.20;63.90
6333;DHT22;3199;49.102;8.856;2023-03-16T13:49:15;14.30;63.60
6333;DHT22;3199;49.102;8.856;2023-03-16T13:51:42;14.50;62.70
6333;DHT22;3199;49.102;8.856;2023-03-16T13:54:28;14.60;61.70
6333;DHT22;3199;49.102;8.856;2023-03-16T13:56:57;14.60;62.80
6333;DHT22;3199;49.102;8.856;2023-03-16T13:59:23;14.60;62.60
6333;DHT22;3199;49.102;8.856;2023-03-16T14:01:57;14.50;61.10
6333;DHT22;3199;49.102;8.856;2023-03-16T14:04:28;14.50;60.80
6333;DHT22;3199;49.102;8.856;2023-03-16T14:07:00;14.40;60.00
6333;DHT22;3199;49.102;8.856;2023-03-16T14:09:32;14.20;60.70
6333;DHT22;3199;49.102;8.856;2023-03-16T14:11:58;14.10;61.70
6333;DHT22;3199;49.102;8.856;2023-03-16T14:14:30;14.00;61.20
6333;DHT22;3199;49.102;8.856;2023-03-16T14:17:01;13.80;62.30
6333;DHT22;3199;49.102;8.856;2023-03-16T14:19:29;13.60;62.50
6333;DHT22;3199;49.102;8.856;2023-03-16T14:22:03;13.60;62.70
6333;DHT22;3199;49.102;8.856;2023-03-16T14:24:36;13.60;62.20
6333;DHT22;3199;49.102;8.856;2023-03-16T14:27:30;13.60;63.20
6333;DHT22;3199;49.102;8.856;2023-03-16T14:30:18;13.60;63.80
6333;DHT22;3199;49.102;8.856;2023-03-16T14:32:58;13.60;64.20
6333;DHT22;3199;49.102;8.856;2023-03-16T14:35:29;13.60;63.70
6333;DHT22;3199;49.102;8.856;2023-03-16T14:37:56;13.60;63.60
6333;DHT22;3199;49.102;8.856;2023-03-16T14:40:30;13.70;62.30
6333;DHT22;3199;49.102;8.856;2023-03-16T14:42:59;13.60;60.70
6333;DHT22;3199;49.102;8.856;2023-03-16T14:45:35;13.60;61.50
6333;DHT22;3199;49.102;8.856;2023-03-16T14:48:06;13.60;62.80
6333;DHT22;3199;49.102;8.856;2023-03-16T14:50:41;13.50;63.00
6333;DHT22;3199;49.102;8.856;2023-03-16T14:53:08;13.40;63.20
6333;DHT22;3199;49.102;8.856;2023-03-16T14:55:34;13.50;64.40
6333;DHT22;3199;49.102;8.856;2023-03-16T14:58:01;13.50;63.30
6333;DHT22;3199;49.102;8.856;2023-03-16T15:00:27;13.50;63.20
6333;DHT22;3199;49.102;8.856;2023-03-16T15:03:02;13.50;62.90
6333;DHT22;3199;49.102;8.856;2023-03-16T15:05:39;13.50;64.10
6333;DHT22;3199;49.102;8.856;2023-03-16T15:08:10;13.60;64.70
6333;DHT22;3199;49.102;8.856;2023-03-16T15:10:37;13.60;63.80
6333;DHT22;3199;49.102;8.856;2023-03-16T15:13:12;13.60;62.30
6333;DHT22;3199;49.102;8.856;2023-03-16T15:15:40;13.60;62.50
6333;DHT22;3199;49.102;8.856;2023-03-16T15:18:08;13.40;61.70
6333;DHT22;3199;49.102;8.856;2023-03-16T15:20:42;13.40;61.80
6333;DHT22;3199;49.102;8.856;2023-03-16T15:23:13;13.30;63.10
6333;DHT22;3199;49.102;8.856;2023-03-16T15:25:42;13.20;63.20
6333;DHT22;3199;49.102;8.856;2023-03-16T15:30:49;13.10;63.00
6333;DHT22;3199;49.102;8.856;2023-03-16T15:33:15;13.10;63.10
6333;DHT22;3199;49.102;8.856;2023-03-16T15:35:42;13.00;62.80
6333;DHT22;3199;49.102;8.856;2023-03-16T15:38:20;13.00;64.10
6333;DHT22;3199;49.102;8.856;2023-03-16T15:40:46;13.00;63.60
6333;DHT22;3199;49.102;8.856;2023-03-16T15:43:17;13.00;63.20
6333;DHT22;3199;49.102;8.856;2023-03-16T15:45:44;12.90;62.70
6333;DHT22;3199;49.102;8.856;2023-03-16T15:48:10;12.80;63.30
6333;DHT22;3199;49.102;8.856;2023-03-16T15:50:37;12.80;63.40
6333;DHT22;3199;49.102;8.856;2023-03-16T15:53:09;12.70;64.10
6333;DHT22;3199;49.102;8.856;2023-03-16T15:55:45;12.70;64.90
6333;DHT22;3199;49.102;8.856;2023-03-16T15:58:19;12.70;64.50
6333;DHT22;3199;49.102;8.856;2023-03-16T16:00:48;12.70;63.50
6333;DHT22;3199;49.102;8.856;2023-03-16T16:03:14;12.60;62.80
6333;DHT22;3199;49.102;8.856;2023-03-16T16:05:39;12.50;64.10
6333;DHT22;3199;49.102;8.856;2023-03-16T16:08:05;12.50;64.40
6333;DHT22;3199;49.102;8.856;2023-03-16T16:10:30;12.50;64.40
6333;DHT22;3199;49.102;8.856;2023-03-16T16:12:57;12.50;65.10
6333;DHT22;3199;49.102;8.856;2023-03-16T16:15:28;12.40;65.10
6333;DHT22;3199;49.102;8.856;2023-03-16T16:17:55;12.40;65.20
6333;DHT22;3199;49.102;8.856;2023-03-16T16:22:48;12.30;65.70
6333;DHT22;3199;49.102;8.856;2023-03-16T16:25:16;12.20;65.90
6333;DHT22;3199;49.102;8.856;2023-03-16T16:27:43;12.20;66.10
6333;DHT22;3199;49.102;8.856;2023-03-16T16:30:25;12.10;66.10
6333;DHT22;3199;49.102;8.856;2023-03-16T16:32:52;12.10;65.80
6333;DHT22;3199;49.102;8.856;2023-03-16T16:35:20;12.00;66.10
6333;DHT22;3199;49.102;8.856;2023-03-16T16:37:46;11.90;66.30
6333;DHT22;3199;49.102;8.856;2023-03-16T16:42:42;11.90;66.70
6333;DHT22;3199;49.102;8.856;2023-03-16T16:45:28;11.80;67.10
6333;DHT22;3199;49.102;8.856;2023-03-16T16:47:54;11.70;67.50
6333;DHT22;3199;49.102;8.856;2023-03-16T16:50:26;11.60;67.80
6333;DHT22;3199;49.102;8.856;2023-03-16T16:52:53;11.60;67.90
6333;DHT22;3199;49.102;8.856;2023-03-16T16:55:20;11.50;67.80
6333;DHT22;3199;49.102;8.856;2023-03-16T16:57:47;11.50;68.50
6333;DHT22;3199;49.102;8.856;2023-03-16T17:00:19;11.40;68.50
6333;DHT22;3199;49.102;8.856;2023-03-16T17:02:47;11.40;69.00
6333;DHT22;3199;49.102;8.856;2023-03-16T17:05:26;11.30;69.00
6333;DHT22;3199;49.102;8.856;2023-03-16T17:07:52;11.30;69.30
6333;DHT22;3199;49.102;8.856;2023-03-16T17:10:20;11.20;69.40
6333;DHT22;3199;49.102;8.856;2023-03-16T17:12:48;11.10;69.80
6333;DHT22;3199;49.102;8.856;2023-03-16T17:15:24;11.10;70.20
6333;DHT22;3199;49.102;8.856;2023-03-16T17:17:51;11.00;70.60
6333;DHT22;3199;49.102;8.856;2023-03-16T17:20:19;11.00;71.00
6333;DHT22;3199;49.102;8.856;2023-03-16T17:22:48;10.90;71.20
6333;DHT22;3199;49.102;8.856;2023-03-16T17:25:15;10.80;71.60
6333;DHT22;3199;49.102;8.856;2023-03-16T17:27:42;10.80;71.90